ZEF weather

Public forecast

Using degrees Fahrenheit for public forecast. Weather courtesy of forecast.io.

Closest aviation weather report (METAR) to Elkin Municipal Airport

Report is more than 6 hours old.

Closest report is Wilkes County Airport, 15.5 nm (28.7 km) WSW. Retrieved 2020/07/21 20:55 UTC (23 days ago):

KUKF 212055Z AUTO 32008KT 10SM TS BKN055 30/23 A3013 RMK AO2 LTG DSNT ALQS

Closest aviation forecast (TAF) to Elkin Municipal Airport

Closest forecast is Smith Reynolds Airport, 28.7 nm (53.2 km) ESE. Retrieved 2020/08/14 06:39 UTC (1 hour ago):

TAF KINT 140537Z 1406/1506 02003KT P6SM SCT018 BKN250 TEMPO 1406/1408 SCT003 BKN010 FM140800 04003KT 2SM BR OVC003 FM141400 05005KT P6SM OVC007 FM141600 04004KT P6SM SCT008 BKN015 FM141900 06004KT P6SM VCSH SCT025 BKN040 BKN250